createdAt,value
2019-05-02T00:03:41.181Z,99526.48
2019-05-02T00:08:45.743Z,99530.86
2019-05-02T00:13:52.795Z,99526.70
2019-05-02T00:18:59.375Z,99514.30
2019-05-02T00:24:04.911Z,99516.13
2019-05-02T00:29:10.511Z,99508.35
2019-05-02T00:34:15.647Z,99507.29
2019-05-02T00:39:20.719Z,99511.02
2019-05-02T00:44:25.761Z,99515.41
2019-05-02T00:49:35.516Z,99502.45
2019-05-02T00:54:38.869Z,99499.60
2019-05-02T00:59:44.819Z,99495.17
2019-05-02T01:04:50.399Z,99489.62
2019-05-02T01:09:55.457Z,99483.89
2019-05-02T01:15:03.349Z,99481.19
2019-05-02T01:20:07.681Z,99485.83
2019-05-02T01:25:16.966Z,99485.27
2019-05-02T01:30:45.164Z,99484.78
2019-05-02T01:36:06.438Z,99476.91
2019-05-02T01:41:12.421Z,99468.44
2019-05-02T01:46:22.325Z,99468.06
2019-05-02T01:51:24.236Z,99465.81
2019-05-02T01:56:33.061Z,99473.33
2019-05-02T02:01:37.686Z,99458.73
2019-05-02T02:06:44.887Z,99459.27
2019-05-02T02:11:50.977Z,99447.46
2019-05-02T02:16:56.931Z,99441.67
2019-05-02T02:22:09.128Z,99436.18
2019-05-02T02:27:14.825Z,99438.05
2019-05-02T02:32:26.632Z,99438.05
2019-05-02T02:37:26.978Z,99441.42
2019-05-02T02:42:34.201Z,99437.83
2019-05-02T02:47:39.368Z,99437.61
2019-05-02T02:52:46.915Z,99439.39
2019-05-02T02:57:51.275Z,99433.82
2019-05-02T03:02:57.248Z,99443.06
2019-05-02T03:08:05.466Z,99433.89
2019-05-02T03:13:27.000Z,99431.23
2019-05-02T03:18:39.510Z,99429.45
2019-05-02T03:23:39.575Z,99433.92
2019-05-02T03:28:45.121Z,99436.41
2019-05-02T03:33:59.131Z,99435.23
2019-05-02T03:38:57.669Z,99435.23
2019-05-02T03:44:11.233Z,99433.37
2019-05-02T03:49:10.509Z,99438.87
2019-05-02T03:54:19.880Z,99435.77
2019-05-02T03:59:39.239Z,99434.67
2019-05-02T04:04:44.305Z,99426.52
2019-05-02T04:09:49.426Z,99428.41
2019-05-02T04:14:56.053Z,99438.33
2019-05-02T04:20:09.255Z,99436.33
2019-05-02T04:25:09.047Z,99438.09
2019-05-02T04:30:14.527Z,99435.27
2019-05-02T04:35:19.661Z,99431.41
2019-05-02T04:40:49.723Z,99435.05
2019-05-02T04:45:57.450Z,99438.48
2019-05-02T04:51:10.110Z,99435.67
2019-05-02T04:56:10.606Z,99437.36
2019-05-02T05:01:16.615Z,99434.73
2019-05-02T05:06:24.040Z,99432.66
2019-05-02T05:11:44.208Z,99434.35
2019-05-02T05:16:51.745Z,99441.84
2019-05-02T05:22:04.359Z,99437.30
2019-05-02T05:27:03.368Z,99432.62
2019-05-02T05:32:10.140Z,99443.20
2019-05-02T05:37:17.271Z,99445.86
2019-05-02T05:42:23.293Z,99447.28
2019-05-02T05:47:31.745Z,99447.99
2019-05-02T05:52:42.461Z,99451.15
2019-05-02T05:57:49.977Z,99451.91
2019-05-02T06:03:01.198Z,99449.63
2019-05-02T06:08:02.534Z,99454.45
2019-05-02T06:13:10.986Z,99452.23
2019-05-02T06:18:15.698Z,99442.58
2019-05-02T06:23:20.776Z,99446.60
2019-05-02T06:28:25.929Z,99446.04
2019-05-02T06:33:32.405Z,99442.84
2019-05-02T06:38:37.616Z,99438.67
2019-05-02T06:43:46.659Z,99443.51
2019-05-02T06:48:52.387Z,99442.84
2019-05-02T06:53:57.484Z,99433.08
2019-05-02T06:59:04.291Z,99440.45
2019-05-02T07:04:17.507Z,99435.69
2019-05-02T07:09:40.293Z,99431.28
2019-05-02T07:14:37.375Z,99439.48
2019-05-02T07:19:46.067Z,99430.81
2019-05-02T07:24:51.456Z,99423.71
2019-05-02T07:29:59.564Z,99419.72
2019-05-02T07:35:06.189Z,99420.95
2019-05-02T07:40:12.070Z,99431.28
2019-05-02T07:45:23.683Z,99427.22
2019-05-02T07:50:29.136Z,99428.62
2019-05-02T07:55:35.330Z,99430.51
2019-05-02T08:00:41.217Z,99419.61
2019-05-02T08:05:46.741Z,99419.41
2019-05-02T08:10:53.803Z,99426.41
2019-05-02T08:16:00.615Z,99421.92
2019-05-02T08:21:07.031Z,99418.57
2019-05-02T08:26:16.470Z,99414.16
2019-05-02T08:31:22.397Z,99413.91
2019-05-02T08:36:27.904Z,99423.17
2019-05-02T08:41:33.062Z,99416.59
2019-05-02T08:46:39.678Z,99414.53
2019-05-02T08:51:46.337Z,99421.19
2019-05-02T08:56:58.924Z,99414.73
2019-05-02T09:02:00.539Z,99403.69
2019-05-02T09:07:05.729Z,99399.97
2019-05-02T09:12:13.246Z,99392.94
2019-05-02T09:17:33.192Z,99390.02
2019-05-02T09:22:28.521Z,99385.53
2019-05-02T09:27:33.945Z,99381.66
2019-05-02T09:32:38.965Z,99384.42
2019-05-02T09:37:44.051Z,99379.69
2019-05-02T09:42:53.441Z,99378.53
2019-05-02T09:48:04.504Z,99373.28
2019-05-02T09:53:02.799Z,99360.30
2019-05-02T09:58:10.514Z,99357.34
2019-05-02T10:03:16.504Z,99351.47
2019-05-02T10:08:23.644Z,99338.63
2019-05-02T10:13:29.037Z,99333.95
2019-05-02T10:18:34.193Z,99331.72
2019-05-02T10:23:39.542Z,99332.97
2019-05-02T10:28:49.425Z,99325.16
2019-05-02T10:33:52.948Z,99311.38
2019-05-02T10:38:59.366Z,99303.75
2019-05-02T10:44:08.383Z,99300.66
2019-05-02T10:49:26.059Z,99294.52
2019-05-02T10:54:33.637Z,99295.92
2019-05-02T10:59:38.753Z,99290.00
2019-05-02T11:04:48.418Z,99282.65
2019-05-02T11:09:57.227Z,99280.98
2019-05-02T11:15:13.055Z,99281.77
2019-05-02T11:20:18.097Z,99281.09
2019-05-02T11:25:23.585Z,99279.16
2019-05-02T11:30:28.681Z,99276.05
2019-05-02T11:35:34.298Z,99268.72
2019-05-02T11:40:39.415Z,99262.85
2019-05-02T11:45:44.491Z,99260.41
2019-05-02T11:50:49.665Z,99256.90
2019-05-02T11:55:58.392Z,99248.14
2019-05-02T12:01:05.210Z,99253.63
2019-05-02T12:06:12.225Z,99248.38
2019-05-02T12:11:17.642Z,99251.36
2019-05-02T12:16:23.823Z,99246.78
2019-05-02T12:21:29.551Z,99244.95
2019-05-02T12:26:34.801Z,99247.90
2019-05-02T12:31:40.161Z,99253.96
2019-05-02T12:36:45.225Z,99251.05
2019-05-02T12:41:53.317Z,99248.45
2019-05-02T12:46:57.736Z,99245.47
2019-05-02T12:52:03.118Z,99243.34
2019-05-02T12:57:08.189Z,99251.81
2019-05-02T13:02:21.546Z,99254.00
2019-05-02T13:07:27.168Z,99242.95
2019-05-02T13:12:35.652Z,99241.55
2019-05-02T13:17:43.912Z,99251.75
2019-05-02T13:23:06.437Z,99249.64
2019-05-02T13:28:12.289Z,99243.50
2019-05-02T13:33:27.298Z,99241.55
2019-05-02T13:38:39.757Z,99243.01
2019-05-02T13:43:47.418Z,99234.28
2019-05-02T13:48:52.615Z,99242.82
2019-05-02T13:54:02.444Z,99236.30
2019-05-02T13:59:10.445Z,99240.31
2019-05-02T14:04:15.172Z,99227.64
2019-05-02T14:09:45.478Z,99227.80
2019-05-02T14:14:51.939Z,99225.52
2019-05-02T14:20:08.568Z,99222.94
2019-05-02T14:25:03.948Z,99212.05
2019-05-02T14:30:12.122Z,99205.67
2019-05-02T14:35:37.035Z,99201.94
2019-05-02T14:41:14.613Z,99204.56
2019-05-02T14:46:22.380Z,99198.19
2019-05-02T14:51:28.201Z,99188.51
2019-05-02T14:56:52.513Z,99171.78
2019-05-02T15:02:03.844Z,99180.77
2019-05-02T15:07:13.021Z,99174.73
2019-05-02T15:12:22.100Z,99175.93
2019-05-02T15:17:33.648Z,99171.42
2019-05-02T15:22:38.305Z,99170.52
2019-05-02T15:27:45.282Z,99156.52
2019-05-02T15:33:17.138Z,99152.33
2019-05-02T15:38:27.237Z,99150.72
2019-05-02T15:43:27.397Z,99144.58
2019-05-02T15:48:32.654Z,99138.05
2019-05-02T15:54:04.829Z,99129.64
2019-05-02T15:59:04.784Z,99126.31
2019-05-02T16:04:12.701Z,99123.08
2019-05-02T16:09:18.425Z,99110.95
2019-05-02T16:14:27.202Z,99105.31
2019-05-02T16:19:33.522Z,99108.58
2019-05-02T16:24:38.909Z,99109.17
2019-05-02T16:29:43.994Z,99102.41
2019-05-02T16:34:54.808Z,99095.62
2019-05-02T16:39:59.425Z,99099.43
2019-05-02T16:45:06.514Z,99095.50
2019-05-02T16:50:22.872Z,99094.91
2019-05-02T16:55:29.216Z,99099.13
2019-05-02T17:00:37.079Z,99094.16
2019-05-02T17:05:44.216Z,99095.09
2019-05-02T17:10:58.875Z,99092.41
2019-05-02T17:16:12.026Z,99095.14
2019-05-02T17:21:12.644Z,99091.20
2019-05-02T17:26:19.574Z,99097.70
2019-05-02T17:31:25.331Z,99096.95
2019-05-02T17:36:32.380Z,99094.89
2019-05-02T17:41:42.327Z,99096.77
2019-05-02T17:46:44.547Z,99102.44
2019-05-02T17:52:11.233Z,99098.22
2019-05-02T17:57:14.833Z,99108.41
2019-05-02T18:02:21.974Z,99109.61
2019-05-02T18:07:32.285Z,99112.53
2019-05-02T18:12:33.998Z,99106.30
2019-05-02T18:17:39.227Z,99106.80
2019-05-02T18:22:48.955Z,99099.88
2019-05-02T18:27:52.721Z,99095.13
2019-05-02T18:33:03.593Z,99105.67
2019-05-02T18:38:05.438Z,99100.63
2019-05-02T18:43:10.721Z,99100.00
2019-05-02T18:48:15.919Z,99093.52
2019-05-02T18:53:24.333Z,99093.77
2019-05-02T18:58:28.079Z,99096.93
2019-05-02T19:03:33.498Z,99098.34
2019-05-02T19:08:46.798Z,99094.37
2019-05-02T19:13:48.024Z,99095.48
2019-05-02T19:18:57.426Z,99088.69
2019-05-02T19:24:02.412Z,99089.06
2019-05-02T19:29:36.058Z,99092.57
2019-05-02T19:34:41.892Z,99096.06
2019-05-02T19:39:48.695Z,99092.84
2019-05-02T19:44:54.132Z,99092.30
2019-05-02T19:49:59.232Z,99092.92
2019-05-02T19:55:04.887Z,99101.42
2019-05-02T20:00:13.267Z,99106.91
2019-05-02T20:05:24.146Z,99101.59
2019-05-02T20:10:43.649Z,99097.52
2019-05-02T20:15:57.173Z,99102.74
2019-05-02T20:21:28.463Z,99110.13
2019-05-02T20:26:33.679Z,99126.45
2019-05-02T20:31:38.731Z,99123.02
2019-05-02T20:36:44.255Z,99138.78
2019-05-02T20:42:02.810Z,99133.80
2019-05-02T20:47:08.643Z,99134.20
2019-05-02T20:52:13.904Z,99137.75
2019-05-02T20:57:19.285Z,99153.80
2019-05-02T21:02:29.470Z,99140.74
2019-05-02T21:07:54.412Z,99138.53
2019-05-02T21:13:02.072Z,99136.07
2019-05-02T21:18:08.407Z,99136.50
2019-05-02T21:23:13.607Z,99143.70
2019-05-02T21:28:18.872Z,99150.54
2019-05-02T21:33:42.919Z,99141.39
2019-05-02T21:38:49.605Z,99140.50
2019-05-02T21:43:55.159Z,99147.66
2019-05-02T21:49:00.305Z,99149.00
2019-05-02T21:54:23.498Z,99149.02
2019-05-02T21:59:29.625Z,99152.97
2019-05-02T22:04:34.822Z,99149.41
2019-05-02T22:09:41.648Z,99140.16
2019-05-02T22:14:46.991Z,99141.76
2019-05-02T22:19:52.601Z,99137.19
2019-05-02T22:24:58.112Z,99141.70
2019-05-02T22:30:03.346Z,99140.19
2019-05-02T22:35:08.634Z,99144.76
2019-05-02T22:40:15.165Z,99151.54
2019-05-02T22:45:21.802Z,99149.91
2019-05-02T22:50:27.042Z,99149.95
2019-05-02T22:55:32.202Z,99154.59
2019-05-02T23:00:37.248Z,99150.22
2019-05-02T23:05:43.468Z,99154.39
2019-05-02T23:10:48.896Z,99149.61
2019-05-02T23:15:54.356Z,99153.78
2019-05-02T23:20:59.410Z,99149.91
2019-05-02T23:26:17.006Z,99149.31
2019-05-02T23:31:22.578Z,99150.91
2019-05-02T23:36:29.342Z,99152.28
2019-05-02T23:41:35.744Z,99148.88
2019-05-02T23:46:42.441Z,99153.84
2019-05-02T23:51:48.013Z,99153.48
2019-05-02T23:56:53.132Z,99156.74
